createdAt,value
2022-11-04T00:02:04.294Z,75455.06
2022-11-04T00:12:27.067Z,75459.09
2022-11-04T00:22:52.731Z,75457.06
2022-11-04T00:33:15.615Z,75451.00
2022-11-04T00:43:17.788Z,75457.06
2022-11-04T00:53:19.715Z,75455.06
2022-11-04T01:03:23.944Z,75438.88
2022-11-04T01:13:28.255Z,75420.66
2022-11-04T01:23:30.321Z,75402.44
2022-11-04T01:33:37.174Z,75386.25
2022-11-04T01:43:48.642Z,75376.13
2022-11-04T01:53:51.463Z,75382.19
2022-11-04T02:04:20.229Z,75359.94
2022-11-04T02:14:22.286Z,75337.69
2022-11-04T02:25:05.759Z,75317.44
2022-11-04T02:35:51.123Z,75317.44
2022-11-04T02:46:01.911Z,75305.31
2022-11-04T02:56:04.719Z,75287.09
2022-11-04T03:06:10.692Z,75262.81
2022-11-04T03:16:18.296Z,75240.56
2022-11-04T03:26:45.338Z,75232.47
2022-11-04T03:36:47.511Z,75222.34
2022-11-04T03:46:51.628Z,75204.13
2022-11-04T03:57:20.478Z,75196.03
2022-11-04T04:07:43.745Z,75185.91
2022-11-04T04:17:55.613Z,75157.59
2022-11-04T04:28:00.328Z,75171.75
2022-11-04T04:38:23.847Z,75171.75
2022-11-04T04:48:26.097Z,75163.66
2022-11-04T04:58:28.084Z,75153.53
2022-11-04T05:08:35.459Z,75155.56
2022-11-04T05:18:41.167Z,75153.53
2022-11-04T05:28:43.174Z,75139.38
2022-11-04T05:38:51.341Z,75135.31
2022-11-04T05:49:02.948Z,75129.25
2022-11-04T05:59:04.915Z,75117.13
2022-11-04T06:09:11.725Z,75102.94
2022-11-04T06:19:18.571Z,75082.72
2022-11-04T06:29:20.808Z,75068.56
2022-11-04T06:39:22.825Z,75058.44
2022-11-04T06:49:30.135Z,75052.38
2022-11-04T06:59:32.088Z,75024.03
2022-11-04T07:09:36.417Z,75011.91
2022-11-04T07:19:42.935Z,74997.72
2022-11-04T07:29:44.910Z,74993.69
2022-11-04T07:39:49.350Z,74979.53
2022-11-04T07:49:51.533Z,74969.41
2022-11-04T07:59:55.986Z,74951.19
2022-11-04T08:10:03.322Z,74937.03
2022-11-04T08:20:07.559Z,74932.97
2022-11-04T08:30:11.562Z,74912.75
2022-11-04T08:40:18.388Z,74884.41
2022-11-04T08:50:28.080Z,74858.13
2022-11-04T09:00:32.421Z,74827.75
2022-11-04T09:10:35.782Z,74807.53
2022-11-04T09:20:42.401Z,74789.31
2022-11-04T09:30:49.970Z,74754.94
2022-11-04T09:40:57.025Z,74748.84
2022-11-04T09:51:04.057Z,74746.84
2022-11-04T10:01:19.544Z,74732.66
2022-11-04T10:11:45.944Z,74744.81
2022-11-04T10:22:06.788Z,74728.63
2022-11-04T10:32:22.788Z,74682.09
2022-11-04T10:42:34.823Z,74641.63
2022-11-04T10:52:40.337Z,74593.06
2022-11-04T11:02:47.694Z,74560.69
2022-11-04T11:13:03.263Z,74500.00
2022-11-04T11:23:33.653Z,74445.38
2022-11-04T11:33:42.301Z,74423.13
2022-11-04T11:43:54.168Z,74382.66
2022-11-04T11:54:33.968Z,74350.28
2022-11-04T12:15:31.385Z,74309.81
2022-11-04T12:26:02.900Z,74319.94
2022-11-04T12:36:28.513Z,74315.88
2022-11-04T12:46:55.773Z,74338.16
2022-11-04T12:57:12.221Z,74346.22
2022-11-04T13:07:50.061Z,74346.22
2022-11-04T13:18:00.126Z,74338.16
2022-11-04T13:28:02.684Z,74352.31
2022-11-04T13:38:08.950Z,74342.19
2022-11-04T13:48:14.440Z,74340.16
2022-11-04T13:58:28.005Z,74346.22
2022-11-04T14:08:32.261Z,74352.31
2022-11-04T14:18:39.493Z,74370.50
2022-11-04T14:28:45.944Z,74384.69
2022-11-04T14:39:16.774Z,74415.03
2022-11-04T14:49:28.196Z,74410.97
2022-11-04T14:59:32.683Z,74437.28
2022-11-04T15:10:06.801Z,74455.47
2022-11-04T15:20:24.568Z,74475.72
2022-11-04T15:30:34.068Z,74479.75
2022-11-04T15:40:38.271Z,74506.06
2022-11-04T15:50:40.493Z,74520.22
2022-11-04T16:00:44.311Z,74520.22
2022-11-04T16:10:46.826Z,74524.28
2022-11-04T16:20:55.634Z,74542.47
2022-11-04T16:31:13.542Z,74536.41
2022-11-04T16:41:15.812Z,74544.50
2022-11-04T16:51:21.668Z,74546.53
2022-11-04T17:01:24.308Z,74556.66
2022-11-04T17:11:30.785Z,74538.44
2022-11-04T17:21:35.371Z,74532.38
2022-11-04T17:31:41.421Z,74528.31
2022-11-04T17:42:04.730Z,74530.34
2022-11-04T17:52:09.646Z,74540.47
2022-11-04T18:02:14.979Z,74536.41
2022-11-04T18:12:36.609Z,74536.41
2022-11-04T18:22:42.279Z,74532.38
2022-11-04T18:32:47.581Z,74536.41
2022-11-04T18:43:08.843Z,74504.03
2022-11-04T18:53:11.594Z,74518.19
2022-11-04T19:03:13.837Z,74528.31
2022-11-04T19:13:18.647Z,74548.56
2022-11-04T19:23:22.855Z,74542.47
2022-11-04T19:33:31.050Z,74542.47
2022-11-04T19:43:33.303Z,74544.50
2022-11-04T19:53:35.262Z,74556.66
2022-11-04T20:03:39.402Z,74548.56
2022-11-04T20:13:44.911Z,74550.56
2022-11-04T20:23:47.859Z,74560.69
2022-11-04T20:33:53.129Z,74556.66
2022-11-04T20:43:59.980Z,74580.94
2022-11-04T20:54:06.606Z,74568.78
2022-11-04T21:04:15.130Z,74587.00
2022-11-04T21:14:19.716Z,74599.13
2022-11-04T21:24:23.986Z,74609.25
2022-11-04T21:34:25.998Z,74601.16
2022-11-04T21:44:28.522Z,74613.28
2022-11-04T21:54:32.839Z,74619.38
2022-11-04T22:04:37.569Z,74609.25
2022-11-04T22:14:39.675Z,74611.28
2022-11-04T22:24:41.833Z,74617.34
2022-11-04T22:34:51.904Z,74617.34
2022-11-04T22:44:58.807Z,74613.28
2022-11-04T22:55:05.199Z,74615.31
2022-11-04T23:05:07.654Z,74631.50
2022-11-04T23:15:28.771Z,74641.63
2022-11-04T23:25:32.294Z,74637.56
2022-11-04T23:36:04.549Z,74637.56
2022-11-04T23:46:25.069Z,74643.66
2022-11-04T23:56:45.635Z,74655.78
